sensor_id;sensor_type;location;lat;lon;timestamp;temperature;humidity
34135;DHT22;20410;55.578;12.968;2023-03-11T00:00:40;1.60;1.00
34135;DHT22;20410;55.578;12.968;2023-03-11T00:03:08;1.50;1.00
34135;DHT22;20410;55.578;12.968;2023-03-11T00:05:36;1.50;1.00
34135;DHT22;20410;55.578;12.968;2023-03-11T00:08:04;1.50;1.00
34135;DHT22;20410;55.578;12.968;2023-03-11T00:10:35;1.60;1.00
34135;DHT22;20410;55.578;12.968;2023-03-11T00:13:03;1.60;1.00
34135;DHT22;20410;55.578;12.968;2023-03-11T00:15:29;1.60;1.00
34135;DHT22;20410;55.578;12.968;2023-03-11T00:17:56;1.70;1.00
34135;DHT22;20410;55.578;12.968;2023-03-11T00:20:26;1.60;1.00
34135;DHT22;20410;55.578;12.968;2023-03-11T00:22:52;1.60;1.00
34135;DHT22;20410;55.578;12.968;2023-03-11T00:25:19;1.60;1.00
34135;DHT22;20410;55.578;12.968;2023-03-11T00:27:45;1.60;1.00
34135;DHT22;20410;55.578;12.968;2023-03-11T00:30:12;1.60;1.00
34135;DHT22;20410;55.578;12.968;2023-03-11T00:32:38;1.60;1.00
34135;DHT22;20410;55.578;12.968;2023-03-11T00:35:05;1.60;1.00
34135;DHT22;20410;55.578;12.968;2023-03-11T00:37:31;1.60;1.00
34135;DHT22;20410;55.578;12.968;2023-03-11T00:39:56;1.60;1.00
34135;DHT22;20410;55.578;12.968;2023-03-11T00:42:22;1.60;1.00
34135;DHT22;20410;55.578;12.968;2023-03-11T00:44:47;1.50;1.00
34135;DHT22;20410;55.578;12.968;2023-03-11T00:47:13;1.60;1.00
34135;DHT22;20410;55.578;12.968;2023-03-11T00:49:39;1.50;1.00
34135;DHT22;20410;55.578;12.968;2023-03-11T00:52:05;1.50;1.00
34135;DHT22;20410;55.578;12.968;2023-03-11T00:54:30;1.50;1.00
34135;DHT22;20410;55.578;12.968;2023-03-11T00:56:56;1.40;1.00
34135;DHT22;20410;55.578;12.968;2023-03-11T00:59:21;1.40;1.00
34135;DHT22;20410;55.578;12.968;2023-03-11T01:01:47;1.30;1.00
34135;DHT22;20410;55.578;12.968;2023-03-11T01:04:13;1.30;1.00
34135;DHT22;20410;55.578;12.968;2023-03-11T01:06:38;1.40;1.00
34135;DHT22;20410;55.578;12.968;2023-03-11T01:09:04;1.40;1.00
34135;DHT22;20410;55.578;12.968;2023-03-11T01:11:30;1.40;1.00
34135;DHT22;20410;55.578;12.968;2023-03-11T01:13:56;1.40;1.00
34135;DHT22;20410;55.578;12.968;2023-03-11T01:16:22;1.30;1.00
34135;DHT22;20410;55.578;12.968;2023-03-11T01:18:48;1.30;1.00
34135;DHT22;20410;55.578;12.968;2023-03-11T01:21:13;1.30;1.00
34135;DHT22;20410;55.578;12.968;2023-03-11T01:23:40;1.30;1.00
34135;DHT22;20410;55.578;12.968;2023-03-11T01:26:06;1.40;1.00
34135;DHT22;20410;55.578;12.968;2023-03-11T01:28:31;1.30;1.00
34135;DHT22;20410;55.578;12.968;2023-03-11T01:30:57;1.30;1.00
34135;DHT22;20410;55.578;12.968;2023-03-11T01:33:23;1.40;1.00
34135;DHT22;20410;55.578;12.968;2023-03-11T01:35:48;1.30;1.00
34135;DHT22;20410;55.578;12.968;2023-03-11T01:38:14;1.30;1.00
34135;DHT22;20410;55.578;12.968;2023-03-11T01:40:44;1.30;1.00
34135;DHT22;20410;55.578;12.968;2023-03-11T01:43:55;1.30;1.00
34135;DHT22;20410;55.578;12.968;2023-03-11T01:46:23;1.30;1.00
34135;DHT22;20410;55.578;12.968;2023-03-11T01:51:34;1.30;1.00
34135;DHT22;20410;55.578;12.968;2023-03-11T01:54:08;1.30;1.00
34135;DHT22;20410;55.578;12.968;2023-03-11T01:56:38;1.20;1.00
34135;DHT22;20410;55.578;12.968;2023-03-11T01:59:05;1.30;1.00
34135;DHT22;20410;55.578;12.968;2023-03-11T02:01:31;1.30;1.00
34135;DHT22;20410;55.578;12.968;2023-03-11T02:03:57;1.30;1.00
34135;DHT22;20410;55.578;12.968;2023-03-11T02:06:24;1.30;1.00
34135;DHT22;20410;55.578;12.968;2023-03-11T02:08:50;1.40;1.00
34135;DHT22;20410;55.578;12.968;2023-03-11T02:11:20;1.40;1.00
34135;DHT22;20410;55.578;12.968;2023-03-11T02:13:46;1.40;1.00
34135;DHT22;20410;55.578;12.968;2023-03-11T02:16:13;1.40;1.00
34135;DHT22;20410;55.578;12.968;2023-03-11T02:18:39;1.40;1.00
34135;DHT22;20410;55.578;12.968;2023-03-11T02:21:08;1.30;1.00
34135;DHT22;20410;55.578;12.968;2023-03-11T02:26:55;1.20;1.00
34135;DHT22;20410;55.578;12.968;2023-03-11T02:29:21;1.20;1.00
34135;DHT22;20410;55.578;12.968;2023-03-11T02:31:48;1.10;1.00
34135;DHT22;20410;55.578;12.968;2023-03-11T02:34:29;1.20;1.00
34135;DHT22;20410;55.578;12.968;2023-03-11T02:36:56;1.20;1.00
34135;DHT22;20410;55.578;12.968;2023-03-11T02:39:48;1.20;1.00
34135;DHT22;20410;55.578;12.968;2023-03-11T02:42:24;1.30;1.00
34135;DHT22;20410;55.578;12.968;2023-03-11T02:45:11;1.20;1.00
34135;DHT22;20410;55.578;12.968;2023-03-11T02:47:38;1.20;1.00
34135;DHT22;20410;55.578;12.968;2023-03-11T02:50:06;1.30;1.00
34135;DHT22;20410;55.578;12.968;2023-03-11T02:52:37;1.20;1.00
34135;DHT22;20410;55.578;12.968;2023-03-11T02:55:03;1.30;1.00
34135;DHT22;20410;55.578;12.968;2023-03-11T02:57:28;1.20;1.00
34135;DHT22;20410;55.578;12.968;2023-03-11T02:59:54;1.20;1.00
34135;DHT22;20410;55.578;12.968;2023-03-11T03:02:20;1.30;1.00
34135;DHT22;20410;55.578;12.968;2023-03-11T03:04:45;1.20;1.00
34135;DHT22;20410;55.578;12.968;2023-03-11T03:07:11;1.30;1.00
34135;DHT22;20410;55.578;12.968;2023-03-11T03:09:36;1.30;1.00
34135;DHT22;20410;55.578;12.968;2023-03-11T03:12:03;1.30;1.00
34135;DHT22;20410;55.578;12.968;2023-03-11T03:14:29;1.20;1.00
34135;DHT22;20410;55.578;12.968;2023-03-11T03:16:55;1.20;1.00
34135;DHT22;20410;55.578;12.968;2023-03-11T03:19:21;1.30;1.00
34135;DHT22;20410;55.578;12.968;2023-03-11T03:21:46;1.20;1.00
34135;DHT22;20410;55.578;12.968;2023-03-11T03:24:12;1.20;1.00
34135;DHT22;20410;55.578;12.968;2023-03-11T03:26:38;1.20;1.00
34135;DHT22;20410;55.578;12.968;2023-03-11T03:29:04;1.20;1.00
34135;DHT22;20410;55.578;12.968;2023-03-11T03:31:30;1.20;1.00
34135;DHT22;20410;55.578;12.968;2023-03-11T03:33:55;1.20;1.00
34135;DHT22;20410;55.578;12.968;2023-03-11T03:36:21;1.20;1.00
34135;DHT22;20410;55.578;12.968;2023-03-11T03:38:47;1.20;1.00
34135;DHT22;20410;55.578;12.968;2023-03-11T03:41:13;1.20;1.00
34135;DHT22;20410;55.578;12.968;2023-03-11T03:43:40;1.20;1.00
34135;DHT22;20410;55.578;12.968;2023-03-11T03:46:05;1.20;1.00
34135;DHT22;20410;55.578;12.968;2023-03-11T03:48:31;1.30;1.00
34135;DHT22;20410;55.578;12.968;2023-03-11T03:51:05;1.30;1.00
34135;DHT22;20410;55.578;12.968;2023-03-11T03:53:33;1.30;1.00
34135;DHT22;20410;55.578;12.968;2023-03-11T03:56:06;1.10;1.00
34135;DHT22;20410;55.578;12.968;2023-03-11T03:58:32;1.20;1.00
34135;DHT22;20410;55.578;12.968;2023-03-11T04:00:58;1.30;1.00
34135;DHT22;20410;55.578;12.968;2023-03-11T04:03:25;1.30;1.00
34135;DHT22;20410;55.578;12.968;2023-03-11T04:05:51;1.30;1.00
34135;DHT22;20410;55.578;12.968;2023-03-11T04:08:17;1.30;1.00
34135;DHT22;20410;55.578;12.968;2023-03-11T04:10:43;1.30;1.00
34135;DHT22;20410;55.578;12.968;2023-03-11T04:13:09;1.30;1.00
34135;DHT22;20410;55.578;12.968;2023-03-11T04:15:37;1.40;1.00
34135;DHT22;20410;55.578;12.968;2023-03-11T04:18:03;1.40;1.00
34135;DHT22;20410;55.578;12.968;2023-03-11T04:20:28;1.40;1.00
34135;DHT22;20410;55.578;12.968;2023-03-11T04:22:54;1.40;1.00
34135;DHT22;20410;55.578;12.968;2023-03-11T04:25:19;1.40;1.00
34135;DHT22;20410;55.578;12.968;2023-03-11T04:27:45;1.50;1.00
34135;DHT22;20410;55.578;12.968;2023-03-11T04:30:14;1.50;1.00
34135;DHT22;20410;55.578;12.968;2023-03-11T04:32:40;1.50;1.00
34135;DHT22;20410;55.578;12.968;2023-03-11T04:35:06;1.50;1.00
34135;DHT22;20410;55.578;12.968;2023-03-11T04:37:32;1.40;1.00
34135;DHT22;20410;55.578;12.968;2023-03-11T04:39:58;1.40;1.00
34135;DHT22;20410;55.578;12.968;2023-03-11T04:42:23;1.50;1.00
34135;DHT22;20410;55.578;12.968;2023-03-11T04:44:49;1.50;1.00
34135;DHT22;20410;55.578;12.968;2023-03-11T04:47:15;1.50;1.00
34135;DHT22;20410;55.578;12.968;2023-03-11T04:49:40;1.50;1.00
34135;DHT22;20410;55.578;12.968;2023-03-11T04:52:06;1.50;1.00
34135;DHT22;20410;55.578;12.968;2023-03-11T04:54:32;1.50;1.00
34135;DHT22;20410;55.578;12.968;2023-03-11T04:56:57;1.50;1.00
34135;DHT22;20410;55.578;12.968;2023-03-11T04:59:23;1.50;1.00
34135;DHT22;20410;55.578;12.968;2023-03-11T05:01:48;1.50;1.00
34135;DHT22;20410;55.578;12.968;2023-03-11T05:04:14;1.40;1.00
34135;DHT22;20410;55.578;12.968;2023-03-11T05:06:40;1.40;1.00
34135;DHT22;20410;55.578;12.968;2023-03-11T05:09:05;1.40;1.00
34135;DHT22;20410;55.578;12.968;2023-03-11T05:11:31;1.50;1.00
34135;DHT22;20410;55.578;12.968;2023-03-11T05:13:56;1.50;1.00
34135;DHT22;20410;55.578;12.968;2023-03-11T05:16:22;1.50;1.00
34135;DHT22;20410;55.578;12.968;2023-03-11T05:18:48;1.50;1.00
34135;DHT22;20410;55.578;12.968;2023-03-11T05:21:13;1.60;1.00
34135;DHT22;20410;55.578;12.968;2023-03-11T05:23:39;1.60;1.00
34135;DHT22;20410;55.578;12.968;2023-03-11T05:26:04;1.70;1.00
34135;DHT22;20410;55.578;12.968;2023-03-11T05:28:30;1.70;1.00
34135;DHT22;20410;55.578;12.968;2023-03-11T05:30:56;1.70;1.00
34135;DHT22;20410;55.578;12.968;2023-03-11T05:33:22;1.60;1.00
34135;DHT22;20410;55.578;12.968;2023-03-11T05:35:47;1.60;1.00
34135;DHT22;20410;55.578;12.968;2023-03-11T05:38:13;1.60;1.00
34135;DHT22;20410;55.578;12.968;2023-03-11T05:40:39;1.60;1.00
34135;DHT22;20410;55.578;12.968;2023-03-11T05:43:05;1.60;1.00
34135;DHT22;20410;55.578;12.968;2023-03-11T05:45:32;1.60;1.00
34135;DHT22;20410;55.578;12.968;2023-03-11T05:47:57;1.50;1.00
34135;DHT22;20410;55.578;12.968;2023-03-11T05:50:23;1.60;1.00
34135;DHT22;20410;55.578;12.968;2023-03-11T05:52:48;1.70;1.00
34135;DHT22;20410;55.578;12.968;2023-03-11T05:55:14;1.70;1.00
34135;DHT22;20410;55.578;12.968;2023-03-11T05:57:40;1.70;1.00
34135;DHT22;20410;55.578;12.968;2023-03-11T06:00:06;1.70;1.00
34135;DHT22;20410;55.578;12.968;2023-03-11T06:02:37;1.80;1.00
34135;DHT22;20410;55.578;12.968;2023-03-11T06:05:04;1.80;1.00
34135;DHT22;20410;55.578;12.968;2023-03-11T06:07:30;1.80;1.00
34135;DHT22;20410;55.578;12.968;2023-03-11T06:09:56;1.80;1.00
34135;DHT22;20410;55.578;12.968;2023-03-11T06:12:21;1.70;1.00
34135;DHT22;20410;55.578;12.968;2023-03-11T06:14:47;1.70;1.00
34135;DHT22;20410;55.578;12.968;2023-03-11T06:17:13;1.70;1.00
34135;DHT22;20410;55.578;12.968;2023-03-11T06:19:38;1.70;1.00
34135;DHT22;20410;55.578;12.968;2023-03-11T06:22:04;1.80;1.00
34135;DHT22;20410;55.578;12.968;2023-03-11T06:24:30;1.80;1.00
34135;DHT22;20410;55.578;12.968;2023-03-11T06:26:55;1.80;1.00
34135;DHT22;20410;55.578;12.968;2023-03-11T06:29:21;1.80;1.00
34135;DHT22;20410;55.578;12.968;2023-03-11T06:31:49;1.90;1.00
34135;DHT22;20410;55.578;12.968;2023-03-11T06:34:14;2.10;1.00
34135;DHT22;20410;55.578;12.968;2023-03-11T06:36:40;2.10;1.00
34135;DHT22;20410;55.578;12.968;2023-03-11T06:39:06;2.20;1.00
34135;DHT22;20410;55.578;12.968;2023-03-11T06:41:33;2.30;1.00
34135;DHT22;20410;55.578;12.968;2023-03-11T06:43:58;2.30;1.00
34135;DHT22;20410;55.578;12.968;2023-03-11T06:46:24;2.20;1.00
34135;DHT22;20410;55.578;12.968;2023-03-11T06:48:50;2.10;1.00
34135;DHT22;20410;55.578;12.968;2023-03-11T06:51:19;2.10;1.00
34135;DHT22;20410;55.578;12.968;2023-03-11T06:53:50;2.10;1.00
34135;DHT22;20410;55.578;12.968;2023-03-11T06:56:17;2.10;1.00
34135;DHT22;20410;55.578;12.968;2023-03-11T06:58:43;2.10;1.00
34135;DHT22;20410;55.578;12.968;2023-03-11T07:01:23;2.10;1.00
34135;DHT22;20410;55.578;12.968;2023-03-11T07:03:50;2.10;1.00
34135;DHT22;20410;55.578;12.968;2023-03-11T07:06:19;2.10;1.00
34135;DHT22;20410;55.578;12.968;2023-03-11T07:08:48;2.00;1.00
34135;DHT22;20410;55.578;12.968;2023-03-11T07:11:23;2.00;1.00
34135;DHT22;20410;55.578;12.968;2023-03-11T07:13:50;1.90;1.00
34135;DHT22;20410;55.578;12.968;2023-03-11T07:16:18;1.90;1.00
34135;DHT22;20410;55.578;12.968;2023-03-11T07:18:45;1.90;1.00
34135;DHT22;20410;55.578;12.968;2023-03-11T07:21:13;1.90;1.00
34135;DHT22;20410;55.578;12.968;2023-03-11T07:23:39;2.00;1.00
34135;DHT22;20410;55.578;12.968;2023-03-11T07:26:08;1.90;1.00
34135;DHT22;20410;55.578;12.968;2023-03-11T07:28:34;2.00;1.00
34135;DHT22;20410;55.578;12.968;2023-03-11T07:31:06;2.10;1.00
34135;DHT22;20410;55.578;12.968;2023-03-11T07:33:32;2.10;1.00
34135;DHT22;20410;55.578;12.968;2023-03-11T07:35:58;2.10;1.00
34135;DHT22;20410;55.578;12.968;2023-03-11T07:38:23;2.10;1.00
34135;DHT22;20410;55.578;12.968;2023-03-11T07:40:57;2.20;1.00
34135;DHT22;20410;55.578;12.968;2023-03-11T07:43:23;2.20;1.00
34135;DHT22;20410;55.578;12.968;2023-03-11T07:45:49;2.30;1.00
34135;DHT22;20410;55.578;12.968;2023-03-11T07:48:16;2.40;1.00
34135;DHT22;20410;55.578;12.968;2023-03-11T07:50:41;2.50;1.00
34135;DHT22;20410;55.578;12.968;2023-03-11T07:53:07;2.60;1.00
34135;DHT22;20410;55.578;12.968;2023-03-11T07:55:32;2.60;1.00
34135;DHT22;20410;55.578;12.968;2023-03-11T07:57:58;2.70;1.00
34135;DHT22;20410;55.578;12.968;2023-03-11T08:00:24;2.60;1.00
34135;DHT22;20410;55.578;12.968;2023-03-11T08:02:50;2.70;1.00
34135;DHT22;20410;55.578;12.968;2023-03-11T08:05:16;2.70;1.00
34135;DHT22;20410;55.578;12.968;2023-03-11T08:07:45;2.70;1.00
34135;DHT22;20410;55.578;12.968;2023-03-11T08:10:11;2.70;1.00
34135;DHT22;20410;55.578;12.968;2023-03-11T08:12:36;2.70;1.00
34135;DHT22;20410;55.578;12.968;2023-03-11T08:15:02;2.70;1.00
34135;DHT22;20410;55.578;12.968;2023-03-11T08:17:28;2.90;1.00
34135;DHT22;20410;55.578;12.968;2023-03-11T08:19:54;3.00;1.00
34135;DHT22;20410;55.578;12.968;2023-03-11T08:22:20;3.10;1.00
34135;DHT22;20410;55.578;12.968;2023-03-11T08:24:49;3.20;1.00
34135;DHT22;20410;55.578;12.968;2023-03-11T08:27:15;3.30;1.00
34135;DHT22;20410;55.578;12.968;2023-03-11T08:29:41;3.30;1.00
34135;DHT22;20410;55.578;12.968;2023-03-11T08:32:06;3.30;1.00
34135;DHT22;20410;55.578;12.968;2023-03-11T08:34:32;3.30;1.00
34135;DHT22;20410;55.578;12.968;2023-03-11T08:36:59;3.30;1.00
34135;DHT22;20410;55.578;12.968;2023-03-11T08:39:25;3.40;1.00
34135;DHT22;20410;55.578;12.968;2023-03-11T08:41:50;3.40;1.00
34135;DHT22;20410;55.578;12.968;2023-03-11T08:44:16;3.30;1.00
34135;DHT22;20410;55.578;12.968;2023-03-11T08:46:41;3.10;1.00
34135;DHT22;20410;55.578;12.968;2023-03-11T08:49:07;3.10;1.00
34135;DHT22;20410;55.578;12.968;2023-03-11T08:51:33;3.10;1.00
34135;DHT22;20410;55.578;12.968;2023-03-11T08:54:00;3.10;1.00
34135;DHT22;20410;55.578;12.968;2023-03-11T08:56:26;3.10;1.00
34135;DHT22;20410;55.578;12.968;2023-03-11T08:58:52;3.10;1.00
34135;DHT22;20410;55.578;12.968;2023-03-11T09:01:18;3.10;1.00
34135;DHT22;20410;55.578;12.968;2023-03-11T09:03:45;3.10;1.00
34135;DHT22;20410;55.578;12.968;2023-03-11T09:06:13;3.10;1.00
34135;DHT22;20410;55.578;12.968;2023-03-11T09:08:40;3.10;1.00
34135;DHT22;20410;55.578;12.968;2023-03-11T09:11:07;3.20;1.00
34135;DHT22;20410;55.578;12.968;2023-03-11T09:13:33;3.40;1.00
34135;DHT22;20410;55.578;12.968;2023-03-11T09:15:59;3.30;1.00
34135;DHT22;20410;55.578;12.968;2023-03-11T09:18:24;3.40;1.00
34135;DHT22;20410;55.578;12.968;2023-03-11T09:20:50;3.40;1.00
34135;DHT22;20410;55.578;12.968;2023-03-11T09:23:16;3.40;1.00
34135;DHT22;20410;55.578;12.968;2023-03-11T09:25:42;3.50;1.00
34135;DHT22;20410;55.578;12.968;2023-03-11T09:28:08;3.50;1.00
34135;DHT22;20410;55.578;12.968;2023-03-11T09:30:34;3.50;1.00
34135;DHT22;20410;55.578;12.968;2023-03-11T09:33:00;3.50;1.00
34135;DHT22;20410;55.578;12.968;2023-03-11T09:35:26;3.40;1.00
34135;DHT22;20410;55.578;12.968;2023-03-11T09:37:52;3.60;1.00
34135;DHT22;20410;55.578;12.968;2023-03-11T09:40:20;3.40;1.00
34135;DHT22;20410;55.578;12.968;2023-03-11T09:45:28;3.50;1.00
34135;DHT22;20410;55.578;12.968;2023-03-11T09:51:04;3.50;1.00
34135;DHT22;20410;55.578;12.968;2023-03-11T09:53:46;3.40;1.00
34135;DHT22;20410;55.578;12.968;2023-03-11T09:56:19;3.30;1.00
34135;DHT22;20410;55.578;12.968;2023-03-11T09:58:59;3.40;1.00
34135;DHT22;20410;55.578;12.968;2023-03-11T10:01:29;3.30;1.00
34135;DHT22;20410;55.578;12.968;2023-03-11T10:04:09;3.30;1.00
34135;DHT22;20410;55.578;12.968;2023-03-11T10:06:38;3.10;1.00
34135;DHT22;20410;55.578;12.968;2023-03-11T10:28:18;3.40;1.00
34135;DHT22;20410;55.578;12.968;2023-03-11T10:31:18;3.40;1.00
34135;DHT22;20410;55.578;12.968;2023-03-11T10:34:25;3.40;1.00
34135;DHT22;20410;55.578;12.968;2023-03-11T10:39:21;3.70;1.00
34135;DHT22;20410;55.578;12.968;2023-03-11T10:41:51;3.80;1.00
34135;DHT22;20410;55.578;12.968;2023-03-11T10:44:22;3.90;1.00
34135;DHT22;20410;55.578;12.968;2023-03-11T10:46:49;3.90;1.00
34135;DHT22;20410;55.578;12.968;2023-03-11T10:49:16;3.90;1.00
34135;DHT22;20410;55.578;12.968;2023-03-11T10:51:46;3.70;1.00
34135;DHT22;20410;55.578;12.968;2023-03-11T10:54:38;3.70;1.00
34135;DHT22;20410;55.578;12.968;2023-03-11T10:57:24;3.90;1.00
34135;DHT22;20410;55.578;12.968;2023-03-11T10:59:52;4.20;99.90
34135;DHT22;20410;55.578;12.968;2023-03-11T11:02:24;4.20;99.90
34135;DHT22;20410;55.578;12.968;2023-03-11T11:07:31;4.00;99.90
34135;DHT22;20410;55.578;12.968;2023-03-11T11:15:41;3.70;99.90
34135;DHT22;20410;55.578;12.968;2023-03-11T11:18:53;3.80;99.90
34135;DHT22;20410;55.578;12.968;2023-03-11T11:26:41;3.60;99.90
34135;DHT22;20410;55.578;12.968;2023-03-11T11:29:15;3.70;99.90
34135;DHT22;20410;55.578;12.968;2023-03-11T11:31:45;3.80;99.90
34135;DHT22;20410;55.578;12.968;2023-03-11T11:34:34;3.90;99.90
34135;DHT22;20410;55.578;12.968;2023-03-11T11:37:02;4.00;99.90
34135;DHT22;20410;55.578;12.968;2023-03-11T11:39:32;4.00;99.90
34135;DHT22;20410;55.578;12.968;2023-03-11T11:42:01;4.20;99.90
34135;DHT22;20410;55.578;12.968;2023-03-11T11:44:33;4.10;99.90
34135;DHT22;20410;55.578;12.968;2023-03-11T11:47:10;4.30;99.90
34135;DHT22;20410;55.578;12.968;2023-03-11T11:49:48;4.40;99.90
34135;DHT22;20410;55.578;12.968;2023-03-11T11:52:34;4.40;99.90
34135;DHT22;20410;55.578;12.968;2023-03-11T11:55:26;4.10;99.90
34135;DHT22;20410;55.578;12.968;2023-03-11T11:57:51;4.20;99.90
34135;DHT22;20410;55.578;12.968;2023-03-11T12:00:22;4.40;99.90
34135;DHT22;20410;55.578;12.968;2023-03-11T12:02:54;4.20;99.90
34135;DHT22;20410;55.578;12.968;2023-03-11T12:05:28;4.30;99.90
34135;DHT22;20410;55.578;12.968;2023-03-11T12:08:08;4.50;99.90
34135;DHT22;20410;55.578;12.968;2023-03-11T12:10:59;4.50;99.90
34135;DHT22;20410;55.578;12.968;2023-03-11T12:13:49;4.40;99.90
34135;DHT22;20410;55.578;12.968;2023-03-11T12:16:37;4.40;99.90
34135;DHT22;20410;55.578;12.968;2023-03-11T12:29:51;4.30;99.90
34135;DHT22;20410;55.578;12.968;2023-03-11T12:32:36;4.30;95.20
34135;DHT22;20410;55.578;12.968;2023-03-11T12:35:25;4.40;99.90
34135;DHT22;20410;55.578;12.968;2023-03-11T12:38:05;4.60;82.00
34135;DHT22;20410;55.578;12.968;2023-03-11T12:40:57;4.90;41.20
34135;DHT22;20410;55.578;12.968;2023-03-11T12:45:56;5.10;1.00
34135;DHT22;20410;55.578;12.968;2023-03-11T12:50:57;5.10;1.00
34135;DHT22;20410;55.578;12.968;2023-03-11T12:53:45;5.10;1.00
34135;DHT22;20410;55.578;12.968;2023-03-11T12:56:26;5.20;1.00
34135;DHT22;20410;55.578;12.968;2023-03-11T12:59:18;5.10;1.00
34135;DHT22;20410;55.578;12.968;2023-03-11T13:01:59;5.20;1.00
34135;DHT22;20410;55.578;12.968;2023-03-11T13:12:43;5.20;1.00
34135;DHT22;20410;55.578;12.968;2023-03-11T13:17:58;5.20;1.00
34135;DHT22;20410;55.578;12.968;2023-03-11T13:25:41;5.50;1.00
34135;DHT22;20410;55.578;12.968;2023-03-11T13:28:26;5.40;1.00
34135;DHT22;20410;55.578;12.968;2023-03-11T13:33:53;5.30;1.00
34135;DHT22;20410;55.578;12.968;2023-03-11T13:42:43;5.30;1.00
34135;DHT22;20410;55.578;12.968;2023-03-11T13:45:31;5.20;1.00
34135;DHT22;20410;55.578;12.968;2023-03-11T13:50:42;5.50;1.00
34135;DHT22;20410;55.578;12.968;2023-03-11T13:53:28;5.50;1.00
34135;DHT22;20410;55.578;12.968;2023-03-11T13:55:56;5.60;1.00
34135;DHT22;20410;55.578;12.968;2023-03-11T13:58:24;5.70;1.00
34135;DHT22;20410;55.578;12.968;2023-03-11T14:01:00;5.70;1.00
34135;DHT22;20410;55.578;12.968;2023-03-11T14:03:35;5.70;1.00
34135;DHT22;20410;55.578;12.968;2023-03-11T14:06:07;5.70;1.00
34135;DHT22;20410;55.578;12.968;2023-03-11T14:08:36;5.60;1.00
34135;DHT22;20410;55.578;12.968;2023-03-11T14:11:14;5.70;1.00
34135;DHT22;20410;55.578;12.968;2023-03-11T14:13:45;5.90;24.20
34135;DHT22;20410;55.578;12.968;2023-03-11T14:16:28;5.90;1.00
34135;DHT22;20410;55.578;12.968;2023-03-11T14:19:14;5.90;47.70
34135;DHT22;20410;55.578;12.968;2023-03-11T14:21:48;5.90;99.90
34135;DHT22;20410;55.578;12.968;2023-03-11T14:24:21;6.00;99.90
34135;DHT22;20410;55.578;12.968;2023-03-11T14:26:47;6.00;99.90
34135;DHT22;20410;55.578;12.968;2023-03-11T14:29:18;6.00;99.90
34135;DHT22;20410;55.578;12.968;2023-03-11T14:31:46;6.00;85.50
34135;DHT22;20410;55.578;12.968;2023-03-11T14:34:23;5.90;48.20
34135;DHT22;20410;55.578;12.968;2023-03-11T14:36:56;5.90;17.30
34135;DHT22;20410;55.578;12.968;2023-03-11T14:39:34;5.90;59.80
34135;DHT22;20410;55.578;12.968;2023-03-11T14:42:17;5.90;99.90
34135;DHT22;20410;55.578;12.968;2023-03-11T14:44:56;6.00;99.90
34135;DHT22;20410;55.578;12.968;2023-03-11T14:49:55;6.10;99.90
34135;DHT22;20410;55.578;12.968;2023-03-11T14:53:43;6.20;99.90
34135;DHT22;20410;55.578;12.968;2023-03-11T14:55:57;6.40;99.90
34135;DHT22;20410;55.578;12.968;2023-03-11T14:58:36;6.40;90.60
34135;DHT22;20410;55.578;12.968;2023-03-11T15:03:33;6.50;99.90
34135;DHT22;20410;55.578;12.968;2023-03-11T15:06:05;6.40;99.90
34135;DHT22;20410;55.578;12.968;2023-03-11T15:08:35;6.50;99.90
34135;DHT22;20410;55.578;12.968;2023-03-11T15:13:37;6.50;99.90
34135;DHT22;20410;55.578;12.968;2023-03-11T15:16:06;6.50;99.90
34135;DHT22;20410;55.578;12.968;2023-03-11T15:18:36;6.50;99.90
34135;DHT22;20410;55.578;12.968;2023-03-11T15:21:14;6.60;99.90
34135;DHT22;20410;55.578;12.968;2023-03-11T15:23:52;6.50;99.90
34135;DHT22;20410;55.578;12.968;2023-03-11T15:26:29;6.40;99.90
34135;DHT22;20410;55.578;12.968;2023-03-11T15:29:03;6.30;99.90
34135;DHT22;20410;55.578;12.968;2023-03-11T15:31:36;6.30;99.90
34135;DHT22;20410;55.578;12.968;2023-03-11T15:34:20;6.20;99.90
34135;DHT22;20410;55.578;12.968;2023-03-11T15:39:20;6.20;99.90
34135;DHT22;20410;55.578;12.968;2023-03-11T15:44:47;6.30;99.90
34135;DHT22;20410;55.578;12.968;2023-03-11T15:47:19;6.30;99.90
34135;DHT22;20410;55.578;12.968;2023-03-11T15:49:45;6.30;99.90
34135;DHT22;20410;55.578;12.968;2023-03-11T15:52:11;6.30;99.90
34135;DHT22;20410;55.578;12.968;2023-03-11T15:54:37;6.20;99.90
34135;DHT22;20410;55.578;12.968;2023-03-11T15:57:08;6.00;99.90
34135;DHT22;20410;55.578;12.968;2023-03-11T15:59:35;5.90;1.00
34135;DHT22;20410;55.578;12.968;2023-03-11T16:02:02;5.80;1.00
34135;DHT22;20410;55.578;12.968;2023-03-11T16:04:27;5.70;1.00
34135;DHT22;20410;55.578;12.968;2023-03-11T16:06:53;5.60;1.00
34135;DHT22;20410;55.578;12.968;2023-03-11T16:09:19;5.60;1.00
34135;DHT22;20410;55.578;12.968;2023-03-11T16:11:46;5.60;1.00
34135;DHT22;20410;55.578;12.968;2023-03-11T16:14:16;5.60;1.00
34135;DHT22;20410;55.578;12.968;2023-03-11T16:16:43;5.50;1.00
34135;DHT22;20410;55.578;12.968;2023-03-11T16:19:09;5.40;1.00
34135;DHT22;20410;55.578;12.968;2023-03-11T16:21:41;5.40;1.00
34135;DHT22;20410;55.578;12.968;2023-03-11T16:24:14;5.40;1.00
34135;DHT22;20410;55.578;12.968;2023-03-11T16:26:41;5.40;1.00
34135;DHT22;20410;55.578;12.968;2023-03-11T16:29:06;5.40;1.00
34135;DHT22;20410;55.578;12.968;2023-03-11T16:31:32;5.30;1.00
34135;DHT22;20410;55.578;12.968;2023-03-11T16:33:59;5.30;1.00
34135;DHT22;20410;55.578;12.968;2023-03-11T16:36:24;5.30;1.00
34135;DHT22;20410;55.578;12.968;2023-03-11T16:38:50;5.20;1.00
34135;DHT22;20410;55.578;12.968;2023-03-11T16:41:16;5.20;1.00
34135;DHT22;20410;55.578;12.968;2023-03-11T16:43:42;5.30;1.00
34135;DHT22;20410;55.578;12.968;2023-03-11T16:46:08;5.20;1.00
34135;DHT22;20410;55.578;12.968;2023-03-11T16:48:34;5.20;1.00
34135;DHT22;20410;55.578;12.968;2023-03-11T16:50:59;5.20;1.00
34135;DHT22;20410;55.578;12.968;2023-03-11T16:53:25;5.10;1.00
34135;DHT22;20410;55.578;12.968;2023-03-11T16:55:52;5.10;1.00
34135;DHT22;20410;55.578;12.968;2023-03-11T16:58:18;5.10;1.00
34135;DHT22;20410;55.578;12.968;2023-03-11T17:00:43;5.00;1.00
34135;DHT22;20410;55.578;12.968;2023-03-11T17:03:11;5.00;1.00
34135;DHT22;20410;55.578;12.968;2023-03-11T17:05:36;4.90;1.00
34135;DHT22;20410;55.578;12.968;2023-03-11T17:08:02;4.90;1.00
34135;DHT22;20410;55.578;12.968;2023-03-11T17:10:37;4.80;1.00
34135;DHT22;20410;55.578;12.968;2023-03-11T17:13:04;4.70;1.00
34135;DHT22;20410;55.578;12.968;2023-03-11T17:15:30;4.60;1.00
34135;DHT22;20410;55.578;12.968;2023-03-11T17:17:56;4.50;1.00
34135;DHT22;20410;55.578;12.968;2023-03-11T17:20:22;4.40;1.00
34135;DHT22;20410;55.578;12.968;2023-03-11T17:22:48;4.40;1.00
34135;DHT22;20410;55.578;12.968;2023-03-11T17:25:14;4.30;1.00
34135;DHT22;20410;55.578;12.968;2023-03-11T17:27:39;4.30;1.00
34135;DHT22;20410;55.578;12.968;2023-03-11T17:30:06;4.20;1.00
34135;DHT22;20410;55.578;12.968;2023-03-11T17:32:31;4.20;1.00
34135;DHT22;20410;55.578;12.968;2023-03-11T17:34:57;4.20;1.00
34135;DHT22;20410;55.578;12.968;2023-03-11T17:37:23;4.10;1.00
34135;DHT22;20410;55.578;12.968;2023-03-11T17:39:49;4.00;1.00